createdAt,value
2016-11-29T00:04:36.815Z,99.99
2016-11-29T00:09:33.069Z,99.99
2016-11-29T00:14:29.394Z,99.99
2016-11-29T00:19:25.510Z,99.99
2016-11-29T00:24:21.910Z,99.99
2016-11-29T00:29:18.064Z,99.99
2016-11-29T00:34:14.319Z,99.99
2016-11-29T00:39:10.516Z,99.99
2016-11-29T00:44:08.682Z,99.99
2016-11-29T00:49:04.388Z,99.99
2016-11-29T00:54:00.695Z,99.99
2016-11-29T00:58:56.977Z,99.99
2016-11-29T01:03:53.162Z,99.99
2016-11-29T01:08:49.159Z,99.99
2016-11-29T01:13:45.360Z,99.99
2016-11-29T01:18:42.417Z,99.99
2016-11-29T01:23:39.390Z,99.99
2016-11-29T01:28:35.609Z,99.99
2016-11-29T01:33:31.813Z,99.99
2016-11-29T01:38:28.275Z,99.99
2016-11-29T01:43:25.063Z,99.99
2016-11-29T01:48:21.244Z,99.99
2016-11-29T01:53:17.482Z,99.99
2016-11-29T01:58:13.438Z,99.99
2016-11-29T02:03:10.631Z,99.99
2016-11-29T02:08:06.682Z,99.99
2016-11-29T02:13:03.075Z,99.99
2016-11-29T02:17:59.299Z,99.99
2016-11-29T02:22:55.842Z,99.99
2016-11-29T02:27:52.023Z,99.99
2016-11-29T02:32:49.127Z,99.99
2016-11-29T02:37:45.308Z,99.99
2016-11-29T02:42:41.842Z,99.99
2016-11-29T02:47:38.203Z,99.99
2016-11-29T02:52:34.344Z,99.99
2016-11-29T02:57:30.567Z,99.99
2016-11-29T03:02:26.945Z,99.99
2016-11-29T03:07:23.854Z,99.99
2016-11-29T03:12:20.092Z,99.99
2016-11-29T03:17:16.084Z,99.99
2016-11-29T03:22:12.578Z,99.99
2016-11-29T03:27:08.649Z,99.99
2016-11-29T03:32:04.768Z,99.99
2016-11-29T03:37:00.884Z,99.99
2016-11-29T03:41:56.870Z,99.99
2016-11-29T03:46:53.119Z,99.99
2016-11-29T03:51:49.271Z,99.99
2016-11-29T03:56:45.537Z,99.99
2016-11-29T04:01:42.532Z,99.99
2016-11-29T04:06:39.070Z,99.99
2016-11-29T04:11:35.462Z,99.99
2016-11-29T04:16:31.667Z,99.99
2016-11-29T04:21:28.375Z,99.99
2016-11-29T04:26:24.391Z,99.99
2016-11-29T04:31:20.654Z,99.99
2016-11-29T04:36:16.877Z,99.99
2016-11-29T04:41:13.104Z,99.99
2016-11-29T04:46:09.414Z,99.99
2016-11-29T04:51:05.618Z,99.99
2016-11-29T04:56:01.757Z,99.99
2016-11-29T05:00:57.843Z,99.99
2016-11-29T05:05:53.981Z,99.99
2016-11-29T05:10:50.209Z,99.99
2016-11-29T05:15:46.462Z,99.99
2016-11-29T05:20:43.467Z,99.99
2016-11-29T05:25:40.540Z,99.99
2016-11-29T05:30:36.823Z,99.99
2016-11-29T05:35:33.045Z,99.99
2016-11-29T05:40:29.868Z,99.99
2016-11-29T05:45:26.104Z,99.99
2016-11-29T05:50:22.529Z,99.99
2016-11-29T05:55:19.101Z,99.99
2016-11-29T06:00:15.385Z,99.99
2016-11-29T06:05:11.651Z,99.99
2016-11-29T06:10:07.929Z,99.99
2016-11-29T06:15:04.177Z,99.99
2016-11-29T06:20:00.634Z,99.99
2016-11-29T06:24:57.646Z,99.99
2016-11-29T06:29:53.793Z,99.99
2016-11-29T06:34:49.964Z,99.99
2016-11-29T06:39:47.718Z,99.99
2016-11-29T06:44:44.061Z,99.99
2016-11-29T06:49:40.260Z,99.99
2016-11-29T06:54:37.119Z,99.99
2016-11-29T06:59:33.585Z,99.99
2016-11-29T07:04:29.773Z,99.99
2016-11-29T07:09:25.921Z,99.99
2016-11-29T07:14:22.126Z,99.99
2016-11-29T07:19:18.361Z,99.99
2016-11-29T07:24:14.556Z,99.99
2016-11-29T07:29:10.704Z,99.99
2016-11-29T07:34:07.305Z,99.99
2016-11-29T07:39:03.720Z,99.99
2016-11-29T07:43:59.536Z,99.99
2016-11-29T07:48:56.007Z,99.99
2016-11-29T07:53:52.332Z,99.99
2016-11-29T07:58:48.985Z,99.99
2016-11-29T08:03:45.360Z,99.99
2016-11-29T08:08:41.670Z,99.99
2016-11-29T08:13:37.985Z,99.99
2016-11-29T08:18:34.344Z,99.99
2016-11-29T08:23:30.506Z,99.99
2016-11-29T08:28:26.804Z,99.99
2016-11-29T08:33:22.995Z,99.99
2016-11-29T08:38:19.373Z,99.99
2016-11-29T08:43:16.285Z,99.99
2016-11-29T08:48:12.592Z,99.99
2016-11-29T08:53:09.980Z,99.99
2016-11-29T08:58:06.691Z,99.99
2016-11-29T09:03:02.898Z,99.99
2016-11-29T09:07:59.032Z,99.99
2016-11-29T09:12:55.250Z,99.99
2016-11-29T09:17:52.018Z,99.99
2016-11-29T09:22:48.607Z,99.99
2016-11-29T09:27:45.379Z,99.56
2016-11-29T09:32:41.974Z,99.08
2016-11-29T09:37:38.409Z,98.90
2016-11-29T09:42:35.221Z,98.43
2016-11-29T09:47:31.606Z,96.78
2016-11-29T09:52:28.155Z,95.83
2016-11-29T09:57:25.010Z,95.92
2016-11-29T10:02:22.041Z,94.22
2016-11-29T10:07:18.764Z,95.26
2016-11-29T10:12:14.825Z,94.41
2016-11-29T10:17:10.905Z,93.09
2016-11-29T10:22:06.967Z,92.61
2016-11-29T10:27:03.318Z,92.00
2016-11-29T10:32:00.764Z,91.72
2016-11-29T10:36:57.004Z,90.58
2016-11-29T10:41:53.207Z,88.93
2016-11-29T10:46:49.757Z,85.57
2016-11-29T10:51:46.515Z,82.15
2016-11-29T10:56:43.053Z,82.20
2016-11-29T11:01:39.833Z,78.26
2016-11-29T11:06:36.580Z,75.84
2016-11-29T11:11:33.331Z,74.60
2016-11-29T11:16:31.379Z,74.13
2016-11-29T11:31:31.057Z,76.74
2016-11-29T11:36:27.506Z,74.85
2016-11-29T11:41:23.711Z,76.84
2016-11-29T11:46:19.724Z,78.22
2016-11-29T11:51:15.743Z,80.87
2016-11-29T11:56:12.010Z,81.96
2016-11-29T12:01:08.524Z,83.86
2016-11-29T12:06:04.698Z,84.58
2016-11-29T12:11:00.857Z,85.52
2016-11-29T12:15:57.018Z,86.28
2016-11-29T12:20:53.496Z,86.18
2016-11-29T12:25:49.859Z,87.13
2016-11-29T12:30:46.046Z,87.13
2016-11-29T12:35:43.167Z,85.05
2016-11-29T12:40:41.372Z,84.29
2016-11-29T12:45:37.312Z,83.63
2016-11-29T12:50:33.496Z,84.29
2016-11-29T12:55:30.420Z,82.97
2016-11-29T13:00:26.942Z,83.91
2016-11-29T13:05:23.207Z,83.34
2016-11-29T13:10:22.031Z,82.78
2016-11-29T13:15:17.613Z,83.63
2016-11-29T13:20:13.895Z,82.78
2016-11-29T13:25:10.286Z,80.98
2016-11-29T13:30:06.343Z,80.41
2016-11-29T13:35:03.713Z,80.41
2016-11-29T13:40:00.903Z,81.83
2016-11-29T13:44:57.180Z,81.17
2016-11-29T13:49:53.503Z,80.32
2016-11-29T13:54:49.922Z,80.51
2016-11-29T13:59:46.282Z,80.13
2016-11-29T14:04:42.643Z,80.79
2016-11-29T14:09:38.975Z,81.17
2016-11-29T14:14:35.366Z,80.69
2016-11-29T14:19:31.572Z,81.17
2016-11-29T14:24:28.661Z,82.31
2016-11-29T14:29:25.057Z,80.98
2016-11-29T14:34:21.119Z,80.32
2016-11-29T14:39:19.305Z,80.51
2016-11-29T14:44:15.364Z,80.79
2016-11-29T14:49:12.550Z,82.40
2016-11-29T14:54:08.520Z,82.21
2016-11-29T14:59:05.600Z,81.98
2016-11-29T15:04:01.373Z,80.37
2016-11-29T15:08:57.867Z,80.56
2016-11-29T15:13:53.891Z,81.98
2016-11-29T15:18:50.093Z,83.40
2016-11-29T15:23:46.410Z,84.34
2016-11-29T15:28:42.769Z,84.34
2016-11-29T15:33:38.864Z,85.66
2016-11-29T15:38:35.038Z,86.71
2016-11-29T15:43:31.273Z,88.08
2016-11-29T15:48:28.600Z,88.55
2016-11-29T15:53:24.757Z,89.40
2016-11-29T15:58:21.007Z,89.69
2016-11-29T16:03:18.038Z,90.35
2016-11-29T16:08:14.311Z,90.63
2016-11-29T16:13:10.378Z,91.29
2016-11-29T16:18:06.660Z,92.43
2016-11-29T16:23:04.656Z,92.52
2016-11-29T16:28:00.679Z,93.84
2016-11-29T16:32:59.514Z,94.13
2016-11-29T16:37:55.920Z,93.75
2016-11-29T16:42:52.334Z,94.60
2016-11-29T16:47:48.805Z,95.50
2016-11-29T16:52:46.017Z,95.21
2016-11-29T16:57:42.051Z,95.40
2016-11-29T17:02:38.416Z,95.12
2016-11-29T17:07:34.681Z,95.21
2016-11-29T17:12:30.966Z,96.25
2016-11-29T17:17:27.870Z,97.20
2016-11-29T17:22:23.961Z,97.48
2016-11-29T17:27:20.118Z,98.33
2016-11-29T17:32:16.434Z,99.08
2016-11-29T17:37:12.630Z,99.27
2016-11-29T17:42:08.966Z,98.85
2016-11-29T17:47:05.256Z,99.88
2016-11-29T17:52:02.851Z,99.99
2016-11-29T17:56:58.708Z,99.99
2016-11-29T18:01:55.017Z,99.99
2016-11-29T18:06:51.329Z,99.99
2016-11-29T18:11:48.321Z,99.99
2016-11-29T18:16:44.469Z,99.99
2016-11-29T18:21:40.942Z,99.99
2016-11-29T18:26:37.152Z,99.99
2016-11-29T18:31:33.973Z,99.99
2016-11-29T18:36:31.607Z,99.99
2016-11-29T18:41:28.157Z,99.99
2016-11-29T18:46:24.399Z,99.99
2016-11-29T18:51:20.597Z,99.99
2016-11-29T18:56:16.734Z,99.99
2016-11-29T19:01:12.953Z,99.99
2016-11-29T19:06:09.230Z,99.99
2016-11-29T19:11:05.549Z,99.99
2016-11-29T19:16:01.926Z,99.99
2016-11-29T19:20:58.209Z,99.99
2016-11-29T19:25:55.067Z,99.99
2016-11-29T19:30:51.227Z,99.99
2016-11-29T19:35:47.427Z,99.99
2016-11-29T19:40:44.457Z,99.99
2016-11-29T19:45:40.838Z,99.99
2016-11-29T19:50:37.155Z,99.99
2016-11-29T19:55:33.558Z,99.99
2016-11-29T20:00:29.775Z,99.99
2016-11-29T20:05:26.039Z,99.99
2016-11-29T20:10:23.022Z,99.99
2016-11-29T20:15:19.469Z,99.04
2016-11-29T20:20:16.064Z,99.04
2016-11-29T20:25:12.920Z,99.99
2016-11-29T20:30:09.990Z,98.57
2016-11-29T20:35:08.870Z,99.41
2016-11-29T20:40:04.451Z,99.13
2016-11-29T20:45:00.771Z,98.57
2016-11-29T20:49:57.985Z,99.22
2016-11-29T20:54:54.925Z,99.51
2016-11-29T20:59:51.083Z,99.99
2016-11-29T21:04:47.163Z,99.99
2016-11-29T21:09:43.450Z,99.70
2016-11-29T21:14:40.633Z,99.13
2016-11-29T21:19:36.588Z,99.32
2016-11-29T21:24:32.860Z,99.60
2016-11-29T21:29:29.046Z,99.99
2016-11-29T21:34:25.568Z,99.99
2016-11-29T21:39:21.948Z,99.99
2016-11-29T21:44:18.289Z,99.99
2016-11-29T21:49:15.253Z,99.99
2016-11-29T21:54:11.706Z,99.99
2016-11-29T21:59:08.618Z,99.99
2016-11-29T22:04:05.009Z,99.99
2016-11-29T22:09:01.195Z,99.99
2016-11-29T22:13:57.304Z,99.99
2016-11-29T22:18:53.795Z,99.99
2016-11-29T22:23:50.084Z,99.99
2016-11-29T22:28:47.041Z,99.99
2016-11-29T22:33:43.116Z,99.99
2016-11-29T22:38:39.397Z,99.99
2016-11-29T22:43:36.826Z,99.99
2016-11-29T22:48:32.778Z,99.99
2016-11-29T22:53:29.239Z,99.99
2016-11-29T22:58:25.357Z,99.99
2016-11-29T23:03:21.668Z,99.99
2016-11-29T23:08:17.873Z,99.99
2016-11-29T23:13:14.191Z,99.99
2016-11-29T23:18:10.241Z,99.99
2016-11-29T23:23:06.435Z,99.99
2016-11-29T23:28:05.149Z,99.99
2016-11-29T23:33:00.977Z,99.99
2016-11-29T23:37:58.191Z,99.99
2016-11-29T23:42:54.430Z,99.99
2016-11-29T23:47:51.426Z,99.32
2016-11-29T23:52:48.424Z,98.94
2016-11-29T23:57:44.602Z,97.43
